createdAt,value
2023-04-06T00:02:54.532Z,12.70
2023-04-06T00:07:04.846Z,13.07
2023-04-06T00:11:41.838Z,13.43
2023-04-06T00:16:17.308Z,13.90
2023-04-06T00:20:51.908Z,12.27
2023-04-06T00:24:54.935Z,12.37
2023-04-06T00:28:59.662Z,13.03
2023-04-06T00:33:05.129Z,12.77
2023-04-06T00:37:08.350Z,12.90
2023-04-06T00:41:12.317Z,11.40
2023-04-06T00:45:15.824Z,12.80
2023-04-06T00:49:20.352Z,15.53
2023-04-06T00:53:23.296Z,13.40
2023-04-06T00:57:27.907Z,13.33
2023-04-06T01:01:33.408Z,11.97
2023-04-06T01:05:43.620Z,11.70
2023-04-06T01:09:55.494Z,12.20
2023-04-06T01:14:02.493Z,11.63
2023-04-06T01:18:18.149Z,11.07
2023-04-06T01:22:33.234Z,10.63
2023-04-06T01:26:40.810Z,11.33
2023-04-06T01:30:46.513Z,11.30
2023-04-06T01:35:06.138Z,12.87
2023-04-06T01:39:14.067Z,11.73
2023-04-06T01:43:17.568Z,12.33
2023-04-06T01:47:35.651Z,10.77
2023-04-06T01:51:39.514Z,12.43
2023-04-06T01:55:48.409Z,11.00
2023-04-06T02:00:07.773Z,10.83
2023-04-06T02:04:17.680Z,12.17
2023-04-06T02:08:23.420Z,11.37
2023-04-06T02:12:27.828Z,10.97
2023-04-06T02:16:31.526Z,9.87
2023-04-06T02:20:34.978Z,10.87
2023-04-06T02:24:37.945Z,11.33
2023-04-06T02:28:42.326Z,10.90
2023-04-06T02:32:45.548Z,9.67
2023-04-06T02:36:49.667Z,11.37
2023-04-06T02:40:52.701Z,10.77
2023-04-06T02:45:00.464Z,10.47
2023-04-06T02:49:08.775Z,11.07
2023-04-06T02:53:13.110Z,11.50
2023-04-06T02:57:16.966Z,10.37
2023-04-06T03:01:23.542Z,10.53
2023-04-06T03:05:33.043Z,11.40
2023-04-06T03:09:39.375Z,10.77
2023-04-06T03:13:42.413Z,11.37
2023-04-06T03:17:48.367Z,10.93
2023-04-06T03:22:07.773Z,10.27
2023-04-06T03:26:11.690Z,11.20
2023-04-06T03:30:15.088Z,11.23
2023-04-06T03:34:19.344Z,11.47
2023-04-06T03:38:23.146Z,12.03
2023-04-06T03:42:26.094Z,11.50
2023-04-06T03:46:33.750Z,11.97
2023-04-06T03:50:38.692Z,11.83
2023-04-06T03:54:42.473Z,11.43
2023-04-06T03:58:50.456Z,11.43
2023-04-06T04:02:53.810Z,11.93
2023-04-06T04:06:58.967Z,10.93
2023-04-06T04:11:01.882Z,13.77
2023-04-06T04:15:06.654Z,12.07
2023-04-06T04:19:10.294Z,11.77
2023-04-06T04:23:14.957Z,11.73
2023-04-06T04:27:18.170Z,11.40
2023-04-06T04:31:23.558Z,12.33
2023-04-06T04:35:32.486Z,12.40
2023-04-06T04:39:37.051Z,12.13
2023-04-06T04:43:43.352Z,11.60
2023-04-06T04:47:48.761Z,12.20
2023-04-06T04:51:54.295Z,13.03
2023-04-06T04:56:31.776Z,15.87
2023-04-06T05:00:45.617Z,15.27
2023-04-06T05:04:48.681Z,13.97
2023-04-06T05:08:57.548Z,13.60
2023-04-06T05:13:02.242Z,14.77
2023-04-06T05:17:05.758Z,13.80
2023-04-06T05:21:09.041Z,13.13
2023-04-06T05:25:27.167Z,13.20
2023-04-06T05:29:35.582Z,13.50
2023-04-06T05:33:39.154Z,13.97
2023-04-06T05:37:46.313Z,14.30
2023-04-06T05:41:50.702Z,12.73
2023-04-06T05:46:05.641Z,12.27
2023-04-06T05:50:10.029Z,13.00
2023-04-06T05:54:16.319Z,14.23
2023-04-06T05:58:20.715Z,12.70
2023-04-06T06:02:28.431Z,12.47
2023-04-06T06:06:32.802Z,14.07
2023-04-06T06:11:01.689Z,12.70
2023-04-06T06:15:05.114Z,14.67
2023-04-06T06:19:13.974Z,15.10
2023-04-06T06:23:17.844Z,15.93
2023-04-06T06:27:21.412Z,14.73
2023-04-06T06:31:25.579Z,15.40
2023-04-06T06:35:30.018Z,14.67
2023-04-06T06:39:33.464Z,15.43
2023-04-06T06:43:36.787Z,16.07
2023-04-06T06:48:02.904Z,14.73
2023-04-06T06:52:36.438Z,15.73
2023-04-06T06:57:23.718Z,14.93
2023-04-06T07:40:17.142Z,16.17
2023-04-06T07:44:51.713Z,16.87
2023-04-06T07:49:10.653Z,15.97
2023-04-06T07:53:54.330Z,16.00
2023-04-06T07:58:25.712Z,15.47
2023-04-06T08:02:34.165Z,16.63
2023-04-06T08:06:37.505Z,15.67
2023-04-06T08:10:40.601Z,16.23
2023-04-06T08:14:43.705Z,15.43
2023-04-06T08:18:48.082Z,16.43
2023-04-06T08:22:53.451Z,15.80
2023-04-06T08:26:56.704Z,14.93
2023-04-06T08:30:59.653Z,16.33
2023-04-06T08:35:04.202Z,16.30
2023-04-06T08:39:07.401Z,16.10
2023-04-06T08:43:14.784Z,15.77
2023-04-06T08:47:18.155Z,16.20
2023-04-06T08:51:24.935Z,17.70
2023-04-06T08:55:27.993Z,16.17
2023-04-06T08:59:31.104Z,15.87
2023-04-06T09:03:36.768Z,16.90
2023-04-06T09:07:41.327Z,18.40
2023-04-06T09:11:48.660Z,17.03
2023-04-06T09:16:01.479Z,16.90
2023-04-06T09:20:05.708Z,17.17
2023-04-06T09:24:11.057Z,16.60
2023-04-06T09:28:14.524Z,18.83
2023-04-06T09:32:18.530Z,19.90
2023-04-06T09:36:21.755Z,18.60
2023-04-06T09:40:26.159Z,19.10
2023-04-06T09:44:29.272Z,18.13
2023-04-06T09:48:35.516Z,18.03
2023-04-06T09:52:42.547Z,19.10
2023-04-06T09:56:49.181Z,17.77
2023-04-06T10:01:10.747Z,19.83
2023-04-06T10:05:21.737Z,19.83
2023-04-06T10:09:30.417Z,19.97
2023-04-06T10:13:35.517Z,17.97
2023-04-06T10:17:38.394Z,20.60
2023-04-06T10:21:45.467Z,18.50
2023-04-06T10:25:55.686Z,19.47
2023-04-06T10:30:05.418Z,19.47
2023-04-06T10:34:09.688Z,19.23
2023-04-06T10:38:15.041Z,21.40
2023-04-06T10:42:18.187Z,19.17
2023-04-06T10:46:27.391Z,18.07
2023-04-06T10:50:31.784Z,18.97
2023-04-06T10:54:35.529Z,16.73
2023-04-06T10:58:39.835Z,17.67
2023-04-06T11:02:44.451Z,17.87
2023-04-06T11:06:49.558Z,18.10
2023-04-06T11:10:52.867Z,18.57
2023-04-06T11:15:03.435Z,17.47
2023-04-06T11:19:08.152Z,18.17
2023-04-06T11:23:11.144Z,19.50
2023-04-06T11:27:16.005Z,19.00
2023-04-06T11:31:19.079Z,19.77
2023-04-06T11:35:25.207Z,19.07
2023-04-06T11:39:29.457Z,18.60
2023-04-06T11:43:33.173Z,19.20
2023-04-06T11:47:38.430Z,19.40
2023-04-06T11:51:42.733Z,19.17
2023-04-06T11:55:47.741Z,18.73
2023-04-06T11:59:50.811Z,19.40
2023-04-06T12:03:54.133Z,20.27
2023-04-06T12:08:01.072Z,18.93
2023-04-06T12:12:06.357Z,19.73
2023-04-06T12:16:09.570Z,19.83
2023-04-06T12:20:22.535Z,18.37
2023-04-06T12:24:31.065Z,19.03
2023-04-06T12:29:05.971Z,19.50
2023-04-06T12:33:33.540Z,19.60
2023-04-06T12:37:37.725Z,19.70
2023-04-06T12:41:47.868Z,18.80
2023-04-06T12:46:05.561Z,17.90
2023-04-06T12:50:24.816Z,19.03
2023-04-06T12:54:29.598Z,17.47
2023-04-06T12:58:41.199Z,19.03
2023-04-06T13:02:55.966Z,18.23
2023-04-06T13:07:09.531Z,17.87
2023-04-06T13:11:25.069Z,17.97
2023-04-06T13:15:35.813Z,18.37
2023-04-06T13:19:40.499Z,18.60
2023-04-06T13:23:43.767Z,18.37
2023-04-06T13:27:49.756Z,20.13
2023-04-06T13:31:54.435Z,17.93
2023-04-06T13:35:58.382Z,17.30
2023-04-06T13:40:01.503Z,17.73
2023-04-06T13:44:05.101Z,17.93
2023-04-06T13:48:10.022Z,17.03
2023-04-06T13:52:12.915Z,17.40
2023-04-06T13:56:15.828Z,14.13
2023-04-06T14:00:19.279Z,14.47
2023-04-06T14:04:23.471Z,15.27
2023-04-06T14:08:26.378Z,12.80
2023-04-06T14:12:29.402Z,12.80
2023-04-06T14:16:32.854Z,14.33
2023-04-06T14:20:37.482Z,14.63
2023-04-06T14:24:42.030Z,14.67
2023-04-06T14:28:45.400Z,15.37
2023-04-06T14:32:48.392Z,15.70
2023-04-06T14:36:53.090Z,14.37
2023-04-06T14:40:56.927Z,14.10
2023-04-06T14:45:01.658Z,15.80
2023-04-06T14:49:04.591Z,15.20
2023-04-06T14:53:09.337Z,14.40
2023-04-06T14:57:12.802Z,14.37
2023-04-06T15:01:16.278Z,15.03
2023-04-06T15:05:19.639Z,13.67
2023-04-06T15:09:24.223Z,47.97
2023-04-06T15:13:27.383Z,18.00
2023-04-06T15:17:30.551Z,15.10
2023-04-06T15:21:33.610Z,15.30
2023-04-06T15:25:41.933Z,15.30
2023-04-06T15:29:45.205Z,15.50
2023-04-06T15:33:48.307Z,14.90
2023-04-06T15:37:54.748Z,15.90
2023-04-06T15:41:59.013Z,14.37
2023-04-06T15:46:03.263Z,16.33
2023-04-06T15:50:08.395Z,15.90
2023-04-06T15:54:11.300Z,13.97
2023-04-06T15:58:15.942Z,15.43
2023-04-06T16:02:20.305Z,15.40
2023-04-06T16:06:25.253Z,13.80
2023-04-06T16:10:28.207Z,14.77
2023-04-06T16:14:32.632Z,14.97
2023-04-06T16:18:39.071Z,13.87
2023-04-06T16:22:41.957Z,14.87
2023-04-06T16:26:46.549Z,14.70
2023-04-06T16:30:50.650Z,14.10
2023-04-06T16:34:53.927Z,14.97
2023-04-06T16:38:58.051Z,18.47
2023-04-06T16:43:01.437Z,13.00
2023-04-06T16:47:07.016Z,29.63
2023-04-06T16:51:11.518Z,15.07
2023-04-06T16:55:14.559Z,12.20
2023-04-06T16:59:17.281Z,12.00
2023-04-06T17:03:21.837Z,11.07
2023-04-06T17:07:26.529Z,12.13
2023-04-06T17:11:43.750Z,12.37
2023-04-06T17:15:53.590Z,12.00
2023-04-06T17:19:59.926Z,10.77
2023-04-06T17:24:03.056Z,13.37
2023-04-06T17:28:06.531Z,11.13
2023-04-06T17:32:09.608Z,13.47
2023-04-06T17:36:30.424Z,12.10
2023-04-06T17:40:52.057Z,14.80
2023-04-06T17:44:55.174Z,12.87
2023-04-06T17:48:58.428Z,14.90
2023-04-06T17:53:03.361Z,14.23
2023-04-06T17:57:07.704Z,15.57
2023-04-06T18:01:11.793Z,14.40
2023-04-06T18:05:14.689Z,16.47
2023-04-06T18:09:19.040Z,16.20
2023-04-06T18:13:22.600Z,16.17
2023-04-06T18:17:27.744Z,18.53
2023-04-06T18:21:31.620Z,18.87
2023-04-06T18:25:39.911Z,17.23
2023-04-06T18:29:45.374Z,14.03
2023-04-06T18:33:48.572Z,13.17
2023-04-06T18:37:51.548Z,13.33
2023-04-06T18:41:55.971Z,10.90
2023-04-06T18:46:00.544Z,12.83
2023-04-06T18:50:04.272Z,12.70
2023-04-06T18:54:08.846Z,13.77
2023-04-06T18:58:14.623Z,12.03
2023-04-06T19:02:17.545Z,12.17
2023-04-06T19:06:21.613Z,10.87
2023-04-06T19:10:25.636Z,11.00
2023-04-06T19:14:33.788Z,10.77
2023-04-06T19:18:38.177Z,11.07
2023-04-06T19:22:41.735Z,11.27
2023-04-06T19:26:53.841Z,11.67
2023-04-06T19:31:19.359Z,10.93
2023-04-06T19:35:24.157Z,9.73
2023-04-06T19:39:27.617Z,10.37
2023-04-06T19:43:36.395Z,9.97
2023-04-06T19:47:40.859Z,9.87
2023-04-06T19:51:43.900Z,10.23
2023-04-06T19:55:46.919Z,10.60
2023-04-06T19:59:49.701Z,11.33
2023-04-06T20:03:54.082Z,11.00
2023-04-06T20:07:57.689Z,12.30
2023-04-06T20:12:00.725Z,13.03
2023-04-06T20:16:03.974Z,12.17
2023-04-06T20:20:09.410Z,12.67
2023-04-06T20:24:12.510Z,13.67
2023-04-06T20:28:15.485Z,12.43
2023-04-06T20:32:20.751Z,12.37
2023-04-06T20:36:25.266Z,12.10
2023-04-06T20:40:28.353Z,13.07
2023-04-06T20:44:32.182Z,13.20
2023-04-06T20:48:36.148Z,13.60
2023-04-06T20:52:40.373Z,14.27
2023-04-06T20:56:43.534Z,14.47
2023-04-06T21:00:46.283Z,14.70
2023-04-06T21:04:49.181Z,15.97
2023-04-06T21:08:59.334Z,15.83
2023-04-06T21:13:11.137Z,17.67
2023-04-06T21:17:16.221Z,17.50
2023-04-06T21:21:18.976Z,15.10
2023-04-06T21:25:24.219Z,18.10
2023-04-06T21:29:27.783Z,17.50
2023-04-06T21:33:31.582Z,16.63
2023-04-06T21:37:34.663Z,16.13
2023-04-06T21:41:40.360Z,17.20
2023-04-06T21:45:50.065Z,17.77
2023-04-06T21:49:52.838Z,18.93
2023-04-06T21:53:56.419Z,18.30
2023-04-06T21:58:00.919Z,17.50
2023-04-06T22:02:03.767Z,17.60
2023-04-06T22:06:08.053Z,16.60
2023-04-06T22:10:11.551Z,20.53
2023-04-06T22:14:18.538Z,19.37
2023-04-06T22:18:23.350Z,19.53
2023-04-06T22:22:26.411Z,19.87
2023-04-06T22:26:29.367Z,20.50
2023-04-06T22:30:33.967Z,19.50
2023-04-06T22:34:36.834Z,17.90
2023-04-06T22:38:41.457Z,18.50
2023-04-06T22:42:44.544Z,20.33
2023-04-06T22:46:48.777Z,18.90
2023-04-06T22:50:51.575Z,17.60
2023-04-06T22:54:54.627Z,18.97
2023-04-06T22:58:57.366Z,17.43
2023-04-06T23:03:01.805Z,18.37
2023-04-06T23:07:35.620Z,19.23
2023-04-06T23:11:38.499Z,16.03
2023-04-06T23:15:59.665Z,18.27
2023-04-06T23:20:03.830Z,17.00
2023-04-06T23:24:07.953Z,17.63
2023-04-06T23:28:12.970Z,17.07
2023-04-06T23:32:16.186Z,17.90
2023-04-06T23:36:20.689Z,18.97
2023-04-06T23:40:24.933Z,20.10
2023-04-06T23:44:30.781Z,17.67
2023-04-06T23:48:33.516Z,16.30
2023-04-06T23:52:37.766Z,18.27
2023-04-06T23:56:41.699Z,17.67
